createdAt,value
2022-11-10T00:00:32.315Z,85.34
2022-11-10T00:03:18.142Z,85.15
2022-11-10T00:06:05.107Z,85.24
2022-11-10T00:08:50.598Z,85.75
2022-11-10T00:11:36.257Z,86.13
2022-11-10T00:14:40.389Z,86.11
2022-11-10T00:17:26.069Z,86.24
2022-11-10T00:20:12.480Z,86.62
2022-11-10T00:22:57.997Z,86.50
2022-11-10T00:25:43.645Z,86.82
2022-11-10T00:28:32.102Z,86.91
2022-11-10T00:31:17.877Z,86.65
2022-11-10T00:34:04.053Z,86.88
2022-11-10T00:36:49.924Z,87.06
2022-11-10T00:39:36.963Z,87.08
2022-11-10T00:42:22.635Z,87.12
2022-11-10T00:45:09.815Z,87.04
2022-11-10T00:47:55.768Z,87.49
2022-11-10T00:50:41.894Z,87.67
2022-11-10T00:53:27.461Z,87.91
2022-11-10T00:56:13.249Z,87.67
2022-11-10T00:58:58.920Z,87.65
2022-11-10T01:01:44.724Z,88.11
2022-11-10T01:04:30.409Z,87.90
2022-11-10T01:07:16.279Z,88.07
2022-11-10T01:10:02.334Z,88.54
2022-11-10T01:12:48.069Z,88.81
2022-11-10T01:15:33.934Z,88.67
2022-11-10T01:18:19.747Z,88.54
2022-11-10T01:21:06.595Z,88.38
2022-11-10T01:23:52.975Z,88.76
2022-11-10T01:26:38.538Z,88.47
2022-11-10T01:29:24.330Z,88.29
2022-11-10T01:32:10.123Z,88.11
2022-11-10T01:34:57.368Z,87.60
2022-11-10T01:37:43.214Z,87.58
2022-11-10T01:40:29.202Z,87.18
2022-11-10T01:43:15.574Z,87.04
2022-11-10T01:46:06.281Z,86.77
2022-11-10T01:48:56.478Z,86.72
2022-11-10T01:51:45.371Z,86.69
2022-11-10T01:54:43.480Z,86.78
2022-11-10T01:57:29.510Z,86.76
2022-11-10T02:00:15.836Z,86.55
2022-11-10T02:03:05.923Z,86.50
2022-11-10T02:05:51.848Z,86.46
2022-11-10T02:08:38.725Z,86.69
2022-11-10T02:11:25.036Z,86.65
2022-11-10T02:14:12.061Z,86.12
2022-11-10T02:16:57.914Z,86.07
2022-11-10T02:19:43.674Z,86.29
2022-11-10T02:22:29.422Z,86.47
2022-11-10T02:25:20.009Z,86.35
2022-11-10T02:28:05.749Z,86.39
2022-11-10T02:30:51.741Z,86.50
2022-11-10T02:33:37.734Z,86.68
2022-11-10T02:36:23.169Z,86.77
2022-11-10T02:39:09.226Z,86.66
2022-11-10T02:41:54.544Z,86.71
2022-11-10T02:44:40.848Z,87.08
2022-11-10T02:47:26.659Z,86.71
2022-11-10T02:50:12.352Z,86.52
2022-11-10T02:52:57.972Z,86.86
2022-11-10T02:55:43.771Z,86.71
2022-11-10T02:58:29.368Z,86.74
2022-11-10T03:01:15.185Z,86.87
2022-11-10T03:04:00.852Z,86.33
2022-11-10T03:06:46.622Z,86.26
2022-11-10T03:09:32.367Z,86.19
2022-11-10T03:12:18.678Z,85.93
2022-11-10T03:15:04.936Z,85.81
2022-11-10T03:17:50.811Z,85.94
2022-11-10T03:20:36.726Z,86.00
2022-11-10T03:23:22.765Z,86.03
2022-11-10T03:26:08.349Z,85.74
2022-11-10T03:28:54.138Z,85.97
2022-11-10T03:31:39.816Z,86.00
2022-11-10T03:34:29.437Z,86.09
2022-11-10T03:37:17.234Z,86.03
2022-11-10T03:40:03.243Z,85.68
2022-11-10T03:42:49.012Z,86.04
2022-11-10T03:45:34.929Z,85.84
2022-11-10T03:48:20.986Z,85.75
2022-11-10T03:51:07.006Z,85.58
2022-11-10T03:53:52.613Z,85.22
2022-11-10T03:56:38.395Z,85.01
2022-11-10T03:59:24.112Z,84.73
2022-11-10T04:02:10.126Z,83.71
2022-11-10T04:05:14.100Z,83.15
2022-11-10T04:08:19.113Z,82.79
2022-11-10T04:11:05.017Z,82.63
2022-11-10T04:14:09.352Z,82.31
2022-11-10T04:16:55.777Z,82.20
2022-11-10T04:19:41.307Z,82.10
2022-11-10T04:22:45.128Z,81.83
2022-11-10T04:25:50.687Z,81.24
2022-11-10T04:28:36.194Z,80.54
2022-11-10T04:31:23.331Z,79.82
2022-11-10T04:34:11.904Z,79.71
2022-11-10T04:36:57.548Z,79.61
2022-11-10T04:39:43.429Z,79.61
2022-11-10T04:42:29.138Z,79.82
2022-11-10T04:45:14.895Z,79.68
2022-11-10T04:48:00.794Z,79.99
2022-11-10T04:50:46.638Z,80.17
2022-11-10T04:53:33.023Z,80.49
2022-11-10T04:56:21.051Z,80.66
2022-11-10T04:59:06.787Z,80.83
2022-11-10T05:01:52.480Z,81.11
2022-11-10T05:04:38.343Z,81.06
2022-11-10T05:07:24.127Z,81.15
2022-11-10T05:10:10.161Z,80.96
2022-11-10T05:12:56.864Z,80.89
2022-11-10T05:15:42.792Z,81.00
2022-11-10T05:18:28.467Z,81.09
2022-11-10T05:21:14.199Z,81.12
2022-11-10T05:24:00.176Z,80.78
2022-11-10T05:26:46.041Z,80.74
2022-11-10T05:29:31.683Z,80.74
2022-11-10T05:32:17.385Z,80.24
2022-11-10T05:35:02.959Z,80.07
2022-11-10T05:37:48.832Z,79.66
2022-11-10T05:40:35.195Z,79.50
2022-11-10T05:43:21.383Z,78.81
2022-11-10T05:46:07.181Z,78.29
2022-11-10T05:48:52.795Z,78.06
2022-11-10T05:51:38.675Z,77.79
2022-11-10T05:54:24.584Z,77.32
2022-11-10T05:57:10.046Z,75.86
2022-11-10T05:59:55.859Z,74.87
2022-11-10T06:02:41.790Z,72.39
2022-11-10T06:05:31.127Z,69.29
2022-11-10T06:08:18.073Z,67.77
2022-11-10T06:11:04.669Z,66.33
2022-11-10T06:13:50.154Z,65.54
2022-11-10T06:16:36.117Z,65.81
2022-11-10T06:19:21.926Z,66.44
2022-11-10T06:22:08.077Z,66.03
2022-11-10T06:24:53.813Z,65.85
2022-11-10T06:27:45.009Z,66.78
2022-11-10T06:30:32.964Z,67.06
2022-11-10T06:33:18.972Z,66.99
2022-11-10T06:36:04.814Z,66.92
2022-11-10T06:38:50.572Z,66.41
2022-11-10T06:41:36.435Z,66.61
2022-11-10T06:44:22.298Z,66.63
2022-11-10T06:47:07.918Z,66.26
2022-11-10T06:49:54.319Z,65.86
2022-11-10T06:52:40.124Z,65.87
2022-11-10T06:55:26.232Z,65.77
2022-11-10T06:58:11.826Z,66.18
2022-11-10T07:01:01.169Z,66.39
2022-11-10T07:04:13.155Z,66.72
2022-11-10T07:06:52.523Z,66.46
2022-11-10T07:09:38.693Z,67.26
2022-11-10T07:12:24.057Z,67.67
2022-11-10T07:15:10.389Z,68.06
2022-11-10T07:17:56.588Z,68.55
2022-11-10T07:20:42.276Z,69.28
2022-11-10T07:23:28.278Z,68.60
2022-11-10T07:26:14.580Z,68.88
2022-11-10T07:29:00.536Z,68.61
2022-11-10T07:31:46.017Z,68.99
2022-11-10T07:34:31.653Z,69.72
2022-11-10T07:37:17.404Z,69.29
2022-11-10T07:40:03.189Z,68.87
2022-11-10T07:42:49.213Z,69.34
2022-11-10T07:45:34.692Z,68.92
2022-11-10T07:48:20.626Z,68.94
2022-11-10T07:51:06.634Z,68.69
2022-11-10T07:53:52.253Z,68.83
2022-11-10T07:56:38.113Z,69.16
2022-11-10T07:59:24.052Z,69.72
2022-11-10T08:02:12.912Z,69.84
2022-11-10T08:04:58.694Z,69.76
2022-11-10T08:07:44.680Z,70.71
2022-11-10T08:10:31.198Z,71.05
2022-11-10T08:13:16.685Z,70.61
2022-11-10T08:16:03.325Z,70.84
2022-11-10T08:18:48.841Z,70.88
2022-11-10T08:21:34.592Z,70.45
2022-11-10T08:24:20.424Z,70.83
2022-11-10T08:27:06.527Z,70.98
2022-11-10T08:29:52.010Z,71.56
2022-11-10T08:32:37.662Z,71.37
2022-11-10T08:35:25.558Z,70.79
2022-11-10T08:38:13.863Z,70.46
2022-11-10T08:40:59.548Z,70.23
2022-11-10T08:43:47.945Z,70.56
2022-11-10T08:46:33.522Z,69.36
2022-11-10T08:49:19.251Z,69.33
2022-11-10T08:52:05.271Z,69.31
2022-11-10T08:54:50.786Z,69.55
2022-11-10T08:57:36.497Z,69.35
2022-11-10T09:00:22.411Z,69.78
2022-11-10T09:03:12.486Z,69.27
2022-11-10T09:05:58.851Z,68.78
2022-11-10T09:08:44.737Z,69.21
2022-11-10T09:11:30.824Z,69.20
2022-11-10T09:14:16.484Z,70.36
2022-11-10T09:17:01.851Z,70.13
2022-11-10T09:19:49.098Z,69.55
2022-11-10T09:22:36.272Z,69.34
2022-11-10T09:25:23.103Z,69.47
2022-11-10T09:28:16.832Z,69.43
2022-11-10T09:31:02.833Z,69.16
2022-11-10T09:33:48.665Z,68.48
2022-11-10T09:36:34.503Z,67.97
2022-11-10T09:39:20.243Z,68.81
2022-11-10T09:42:20.954Z,68.45
2022-11-10T09:45:32.956Z,69.10
2022-11-10T09:48:25.624Z,69.41
2022-11-10T09:51:30.153Z,69.80
2022-11-10T09:54:37.679Z,68.54
2022-11-10T09:57:26.319Z,69.40
2022-11-10T10:00:17.337Z,68.93
2022-11-10T10:03:05.377Z,69.94
2022-11-10T10:06:03.284Z,70.26
2022-11-10T10:09:08.322Z,70.42
2022-11-10T10:12:23.452Z,71.18
2022-11-10T10:15:16.687Z,71.13
2022-11-10T10:18:08.650Z,71.22
2022-11-10T10:21:03.445Z,70.97
2022-11-10T10:24:09.513Z,71.29
2022-11-10T10:27:00.998Z,70.98
2022-11-10T10:29:49.499Z,71.51
2022-11-10T10:32:35.416Z,72.04
2022-11-10T10:35:20.995Z,71.76
2022-11-10T10:38:16.887Z,71.32
2022-11-10T10:41:31.160Z,71.00
2022-11-10T10:44:19.546Z,70.11
2022-11-10T10:47:05.349Z,69.56
2022-11-10T10:49:52.151Z,67.94
2022-11-10T10:52:37.932Z,67.55
2022-11-10T10:55:30.620Z,69.60
2022-11-10T10:58:26.581Z,70.72
2022-11-10T11:01:18.458Z,69.93
2022-11-10T11:04:31.742Z,69.07
2022-11-10T11:07:24.230Z,68.79
2022-11-10T11:10:34.846Z,69.02
2022-11-10T11:13:23.380Z,68.63
2022-11-10T11:16:12.519Z,67.85
2022-11-10T11:18:58.860Z,68.24
2022-11-10T11:22:02.656Z,68.96
2022-11-10T11:25:30.069Z,69.39
2022-11-10T11:28:26.880Z,70.03
2022-11-10T11:31:41.696Z,69.69
2022-11-10T11:34:43.517Z,70.50
2022-11-10T11:37:33.031Z,70.20
2022-11-10T11:40:42.016Z,69.26
2022-11-10T11:43:40.662Z,69.72
2022-11-10T11:46:29.422Z,69.57
2022-11-10T11:49:24.055Z,68.94
2022-11-10T11:52:38.132Z,69.29
2022-11-10T11:55:53.171Z,68.88
2022-11-10T11:58:57.227Z,68.67
2022-11-10T12:02:18.810Z,69.36
2022-11-10T12:05:16.448Z,70.17
2022-11-10T12:08:06.749Z,68.50
2022-11-10T12:11:19.720Z,68.37
2022-11-10T12:14:40.812Z,67.22
2022-11-10T12:17:45.153Z,67.85
2022-11-10T12:20:30.266Z,66.77
2022-11-10T12:23:40.123Z,66.92
2022-11-10T12:26:40.683Z,66.99
2022-11-10T12:29:44.244Z,67.68
2022-11-10T12:32:38.265Z,67.50
2022-11-10T12:35:33.180Z,68.23
2022-11-10T12:38:27.084Z,68.31
2022-11-10T12:41:16.930Z,69.19
2022-11-10T12:44:24.564Z,69.65
2022-11-10T12:47:15.843Z,68.67
2022-11-10T12:50:16.920Z,69.50
2022-11-10T12:53:20.878Z,69.21
2022-11-10T12:56:30.409Z,70.17
2022-11-10T12:59:22.015Z,69.35
2022-11-10T13:02:16.706Z,69.24
2022-11-10T13:05:14.650Z,69.54
2022-11-10T13:08:14.918Z,68.82
2022-11-10T13:11:23.752Z,66.65
2022-11-10T13:14:30.276Z,66.92
2022-11-10T13:17:28.542Z,66.59
2022-11-10T13:23:23.717Z,66.23
2022-11-10T13:26:40.897Z,66.01
2022-11-10T13:29:52.829Z,66.14
2022-11-10T13:32:38.383Z,66.40
2022-11-10T13:35:30.194Z,66.12
2022-11-10T13:38:43.387Z,66.81
2022-11-10T13:41:34.876Z,67.21
2022-11-10T13:44:29.472Z,67.73
2022-11-10T13:47:43.440Z,67.37
2022-11-10T13:50:44.078Z,67.80
2022-11-10T13:53:56.031Z,67.62
2022-11-10T13:57:12.763Z,68.12
2022-11-10T14:00:08.197Z,68.91
2022-11-10T14:02:57.557Z,69.52
2022-11-10T14:06:03.183Z,70.02
2022-11-10T14:09:16.091Z,70.04
2022-11-10T14:12:30.897Z,70.56
2022-11-10T14:15:30.335Z,69.15
2022-11-10T14:18:27.308Z,70.12
2022-11-10T14:21:22.729Z,70.39
2022-11-10T14:24:29.575Z,70.71
2022-11-10T14:27:21.383Z,71.00
2022-11-10T14:30:25.048Z,71.45
2022-11-10T14:33:12.104Z,71.13
2022-11-10T14:36:06.380Z,72.10
2022-11-10T14:38:53.178Z,71.65
2022-11-10T14:41:47.508Z,71.85
2022-11-10T14:44:35.025Z,72.53
2022-11-10T14:47:31.417Z,72.85
2022-11-10T14:50:34.839Z,73.66
2022-11-10T14:53:33.670Z,73.53
2022-11-10T14:56:37.997Z,73.88
2022-11-10T14:59:25.852Z,73.87
2022-11-10T15:02:16.449Z,74.22
2022-11-10T15:05:05.815Z,74.25
2022-11-10T15:07:54.597Z,74.26
2022-11-10T15:10:48.946Z,74.48
2022-11-10T15:13:38.415Z,74.78
2022-11-10T15:16:29.506Z,75.01
2022-11-10T15:19:29.251Z,74.91
2022-11-10T15:22:30.991Z,75.49
2022-11-10T15:25:22.527Z,75.71
2022-11-10T15:28:14.177Z,75.85
2022-11-10T15:31:05.784Z,76.11
2022-11-10T15:33:55.067Z,76.47
2022-11-10T15:36:40.822Z,76.74
2022-11-10T15:39:27.440Z,77.41
2022-11-10T15:42:16.802Z,77.63
2022-11-10T15:45:02.482Z,78.31
2022-11-10T15:47:48.517Z,78.19
2022-11-10T15:50:34.536Z,78.41
2022-11-10T15:53:30.335Z,78.97
2022-11-10T15:56:18.520Z,80.01
2022-11-10T15:59:04.424Z,80.06
2022-11-10T16:01:50.997Z,80.18
2022-11-10T16:04:36.868Z,80.64
2022-11-10T16:07:23.016Z,80.82
2022-11-10T16:10:08.524Z,80.52
2022-11-10T16:12:55.516Z,81.26
2022-11-10T16:15:42.304Z,81.23
2022-11-10T16:18:30.118Z,81.07
2022-11-10T16:21:21.731Z,81.39
2022-11-10T16:24:07.731Z,81.53
2022-11-10T16:26:53.204Z,82.41
2022-11-10T16:29:39.359Z,81.93
2022-11-10T16:32:25.037Z,82.50
2022-11-10T16:35:14.571Z,82.91
2022-11-10T16:38:00.037Z,83.19
2022-11-10T16:40:55.244Z,83.23
2022-11-10T16:43:40.905Z,82.98
2022-11-10T16:46:29.823Z,83.12
2022-11-10T16:49:21.388Z,83.88
2022-11-10T16:52:15.507Z,83.80
2022-11-10T16:55:01.247Z,83.60
2022-11-10T16:57:48.397Z,84.09
2022-11-10T17:00:34.251Z,84.06
2022-11-10T17:03:36.291Z,83.78
2022-11-10T17:06:24.482Z,83.93
2022-11-10T17:09:18.016Z,84.31
2022-11-10T17:12:04.058Z,84.27
2022-11-10T17:14:49.984Z,84.48
2022-11-10T17:17:36.688Z,84.51
2022-11-10T17:20:26.205Z,84.44
2022-11-10T17:23:17.951Z,84.54
2022-11-10T17:26:03.739Z,84.53
2022-11-10T17:28:49.495Z,84.57
2022-11-10T17:31:35.400Z,84.80
2022-11-10T17:34:21.107Z,85.20
2022-11-10T17:37:06.930Z,85.18
2022-11-10T17:39:52.924Z,85.07
2022-11-10T17:42:41.801Z,85.59
2022-11-10T17:45:30.483Z,85.66
2022-11-10T17:48:16.086Z,85.58
2022-11-10T17:51:03.097Z,85.99
2022-11-10T17:53:48.822Z,85.77
2022-11-10T17:56:34.885Z,86.04
2022-11-10T17:59:22.449Z,86.19
2022-11-10T18:02:11.172Z,86.53
2022-11-10T18:04:56.950Z,86.38
2022-11-10T18:07:43.447Z,86.51
2022-11-10T18:10:28.994Z,86.65
2022-11-10T18:13:15.406Z,87.36
2022-11-10T18:16:00.946Z,87.48
2022-11-10T18:18:46.657Z,87.33
2022-11-10T18:21:32.464Z,87.73
2022-11-10T18:24:18.084Z,87.67
2022-11-10T18:27:03.972Z,87.69
2022-11-10T18:29:49.582Z,87.80
2022-11-10T18:32:35.262Z,87.82
2022-11-10T18:35:21.089Z,87.46
2022-11-10T18:38:09.471Z,87.74
2022-11-10T18:40:55.292Z,87.36
2022-11-10T18:43:41.203Z,86.89
2022-11-10T18:46:26.737Z,86.65
2022-11-10T18:49:13.239Z,86.25
2022-11-10T18:51:58.870Z,85.78
2022-11-10T18:54:44.569Z,85.55
2022-11-10T18:57:30.418Z,85.07
2022-11-10T19:00:16.379Z,85.14
2022-11-10T19:03:02.255Z,84.83
2022-11-10T19:05:57.198Z,84.96
2022-11-10T19:08:45.014Z,84.97
2022-11-10T19:11:32.327Z,84.52
2022-11-10T19:14:18.031Z,84.57
2022-11-10T19:17:04.110Z,84.39
2022-11-10T19:19:55.018Z,83.88
2022-11-10T19:22:41.926Z,83.37
2022-11-10T19:25:27.790Z,83.13
2022-11-10T19:28:13.681Z,83.22
2022-11-10T19:31:26.177Z,82.63
2022-11-10T19:34:12.723Z,82.22
2022-11-10T19:36:58.260Z,82.43
2022-11-10T19:39:44.100Z,81.83
2022-11-10T19:42:29.817Z,81.52
2022-11-10T19:45:16.860Z,81.64
2022-11-10T19:48:02.324Z,81.31
2022-11-10T19:50:55.524Z,80.91
2022-11-10T19:53:47.400Z,80.44
2022-11-10T19:56:36.124Z,80.64
2022-11-10T19:59:21.526Z,80.63
2022-11-10T20:02:08.143Z,80.77
2022-11-10T20:05:11.874Z,80.28
2022-11-10T20:08:12.486Z,80.33
2022-11-10T20:11:10.562Z,80.75
2022-11-10T20:13:59.711Z,80.36
2022-11-10T20:16:45.401Z,80.57
2022-11-10T20:19:31.211Z,80.66
2022-11-10T20:22:17.156Z,80.44
2022-11-10T20:25:03.396Z,81.02
2022-11-10T20:27:51.777Z,81.19
2022-11-10T20:30:42.403Z,81.09
2022-11-10T20:33:29.158Z,81.50
2022-11-10T20:36:20.575Z,81.46
2022-11-10T20:39:07.572Z,82.08
2022-11-10T20:41:53.536Z,82.32
2022-11-10T20:44:40.042Z,82.53
2022-11-10T20:47:28.483Z,82.74
2022-11-10T20:50:17.120Z,83.13
2022-11-10T20:53:06.045Z,83.40
2022-11-10T20:55:58.007Z,83.56
2022-11-10T20:58:45.311Z,83.89
2022-11-10T21:01:32.860Z,84.41
2022-11-10T21:04:18.929Z,84.20
2022-11-10T21:07:04.566Z,84.31
2022-11-10T21:09:50.356Z,84.53
2022-11-10T21:12:51.151Z,84.50
2022-11-10T21:15:40.782Z,84.23
2022-11-10T21:18:32.222Z,84.32
2022-11-10T21:21:23.834Z,84.28
2022-11-10T21:24:10.212Z,84.65
2022-11-10T21:26:57.252Z,84.61
2022-11-10T21:29:43.177Z,84.57
2022-11-10T21:32:28.898Z,85.13
2022-11-10T21:35:15.189Z,85.17
2022-11-10T21:38:01.049Z,85.14
2022-11-10T21:40:47.005Z,85.42
2022-11-10T21:43:32.723Z,85.64
2022-11-10T21:46:19.234Z,86.19
2022-11-10T21:49:07.816Z,85.81
2022-11-10T21:51:53.971Z,86.40
2022-11-10T21:54:40.233Z,86.43
2022-11-10T21:57:26.963Z,87.06
2022-11-10T22:00:13.798Z,87.23
2022-11-10T22:03:05.935Z,87.25
2022-11-10T22:05:51.933Z,87.83
2022-11-10T22:08:38.632Z,87.98
2022-11-10T22:11:42.696Z,87.87
2022-11-10T22:14:46.931Z,88.43
2022-11-10T22:17:51.197Z,88.21
2022-11-10T22:20:37.021Z,88.34
2022-11-10T22:23:42.763Z,88.38
2022-11-10T22:26:28.337Z,87.98
2022-11-10T22:29:14.301Z,88.06
2022-11-10T22:32:01.406Z,87.91
2022-11-10T22:34:46.957Z,88.10
2022-11-10T22:37:33.249Z,87.94
2022-11-10T22:40:37.577Z,87.99
2022-11-10T22:43:41.906Z,88.42
2022-11-10T22:46:28.079Z,88.27
2022-11-10T22:49:18.635Z,88.52
2022-11-10T22:52:04.430Z,88.77
2022-11-10T22:54:50.155Z,88.57
2022-11-10T22:57:36.091Z,88.49
2022-11-10T23:00:21.947Z,88.90
2022-11-10T23:03:07.326Z,88.56
2022-11-10T23:05:56.660Z,89.00
2022-11-10T23:08:42.394Z,89.13
2022-11-10T23:11:30.340Z,88.77
2022-11-10T23:14:17.008Z,88.93
2022-11-10T23:17:02.523Z,89.07
2022-11-10T23:19:48.312Z,89.32
2022-11-10T23:22:34.445Z,89.22
2022-11-10T23:25:19.907Z,89.18
2022-11-10T23:28:05.666Z,89.28
2022-11-10T23:30:51.581Z,89.23
2022-11-10T23:33:38.579Z,89.63
2022-11-10T23:36:26.245Z,89.77
2022-11-10T23:39:13.333Z,89.59
2022-11-10T23:41:59.108Z,89.95
2022-11-10T23:44:44.964Z,89.87
2022-11-10T23:47:30.769Z,90.06
2022-11-10T23:50:16.842Z,89.97
2022-11-10T23:53:02.835Z,89.83
2022-11-10T23:56:00.265Z,89.49
2022-11-10T23:58:45.936Z,89.62
